Terminal Aerodrome Forecast
Issued by NWS

Current Version | Previous Version | Text Only | Print | Product List | Glossary On
Versions: 1 2 3 4 5 6 7 8 9 10 11 12 13 14 15 16 17 18 19 20 21 22 23
000
FTUS41 KOKX 300800 AAA
TAFSWF
TAF AMD
KSWF 300820Z 3008/0112 00000KT 6SM BR FEW015 OVC100
     FM301100 00000KT 5SM BR BKN007
     FM301300 12004KT P6SM BKN015
     FM301700 12006KT P6SM BKN035
     FM302000 11007KT P6SM BKN035
     FM010300 07003KT P6SM SCT045
     FM010800 04003KT 4SM BR BKN045
      AMD NOT SKED=

USA.gov is the U.S. government's official web portal to all federal, state and local government web resources and services.